Time;durP1;ratioP1;P1;durP2;ratioP2;P2;SDS_P1;SDS_P2;PMS_P1;PMS_P2;Temp;Humidity;BMP_temperature;BMP_pressure;BME280_temperature;BME280_humidity;BME280_pressure;Samples;Min_cycle;Max_cycle;Signal;HPM_P1;HPM_P2
2022/08/07 00:00:48;;;;;;;4.82;3.47;;;13.90;99.90;;;;;;5049800;28;20143;-45
2022/08/07 00:03:13;;;;;;;4.65;3.35;;;13.80;99.90;;;;;;5050354;28;20415;-45
2022/08/07 00:05:39;;;;;;;4.32;3.75;;;13.80;99.90;;;;;;5048904;28;20047;-45
2022/08/07 00:08:05;;;;;;;6.95;4.93;;;13.70;99.90;;;;;;5050259;28;20029;-45
2022/08/07 00:10:31;;;;;;;4.50;3.65;;;13.70;99.90;;;;;;5050024;28;20021;-44
2022/08/07 00:13:00;;;;;;;5.15;3.67;;;13.70;99.90;;;;;;5050008;28;20491;-45
2022/08/07 00:15:25;;;;;;;4.75;3.53;;;13.60;99.90;;;;;;5050183;28;20271;-45
2022/08/07 00:17:51;;;;;;;4.80;3.80;;;13.50;99.90;;;;;;5050054;28;20059;-45
2022/08/07 00:20:16;;;;;;;7.75;4.57;;;13.60;99.90;;;;;;5048724;28;20467;-45
2022/08/07 00:22:43;;;;;;;5.65;4.55;;;13.60;99.90;;;;;;5049735;28;20473;-44
2022/08/07 00:25:09;;;;;;;4.65;4.15;;;13.60;99.90;;;;;;5050081;28;20111;-45
2022/08/07 00:27:35;;;;;;;6.10;4.10;;;13.60;99.90;;;;;;5049826;28;20029;-45
2022/08/07 00:30:02;;;;;;;7.45;4.20;;;13.50;99.90;;;;;;5049993;28;20444;-44
2022/08/07 00:32:27;;;;;;;6.40;4.20;;;13.50;99.90;;;;;;5049444;28;20098;-45
2022/08/07 00:34:53;;;;;;;11.20;4.40;;;13.40;99.90;;;;;;5049901;28;20476;-46
2022/08/07 00:37:18;;;;;;;6.75;4.43;;;13.30;99.90;;;;;;5049926;28;20029;-45
2022/08/07 00:39:44;;;;;;;6.57;4.60;;;13.30;99.90;;;;;;5049769;28;20630;-48
2022/08/07 00:42:09;;;;;;;8.00;5.13;;;13.30;99.90;;;;;;5049092;28;20037;-46
2022/08/07 00:44:35;;;;;;;6.78;4.90;;;13.30;99.90;;;;;;5049868;28;20036;-48
2022/08/07 00:47:03;;;;;;;7.32;5.20;;;13.30;99.90;;;;;;5048326;28;20037;-47
2022/08/07 00:49:28;;;;;;;11.35;5.15;;;13.40;99.90;;;;;;5049717;28;20033;-46
2022/08/07 00:51:54;;;;;;;6.20;4.72;;;13.40;99.90;;;;;;5064063;28;20029;-47
2022/08/07 00:54:20;;;;;;;6.93;5.65;;;13.40;99.90;;;;;;5049413;28;20025;-46
2022/08/07 00:56:46;;;;;;;7.13;5.00;;;13.40;99.90;;;;;;5049375;28;20039;-45
2022/08/07 00:59:12;;;;;;;7.20;5.13;;;13.40;99.90;;;;;;5049192;28;20025;-48
2022/08/07 01:01:38;;;;;;;6.97;5.10;;;13.30;99.90;;;;;;5048817;28;20491;-45
2022/08/07 01:04:05;;;;;;;7.97;5.38;;;13.30;99.90;;;;;;5049252;28;20440;-44
2022/08/07 01:06:31;;;;;;;8.80;5.38;;;13.30;99.90;;;;;;5049297;28;20028;-47
2022/08/07 01:08:58;;;;;;;6.07;4.68;;;13.30;99.90;;;;;;5049449;28;20039;-46
2022/08/07 01:11:24;;;;;;;9.93;6.20;;;13.20;99.90;;;;;;5048601;28;20667;-44
2022/08/07 01:13:50;;;;;;;7.13;5.05;;;13.20;99.90;;;;;;5048902;28;20025;-45
2022/08/07 01:16:15;;;;;;;6.30;5.20;;;13.20;99.90;;;;;;5048802;28;20044;-43
2022/08/07 01:18:41;;;;;;;6.53;5.43;;;13.20;99.90;;;;;;5048326;28;20056;-44
2022/08/07 01:21:15;;;;;;;6.88;5.22;;;13.20;99.90;;;;;;5048575;28;20506;-45
2022/08/07 01:23:46;;;;;;;11.65;6.13;;;13.10;99.90;;;;;;5049029;28;20571;-44
2022/08/07 01:26:13;;;;;;;6.43;5.38;;;13.10;99.90;;;;;;5048801;28;20060;-44
2022/08/07 01:28:41;;;;;;;8.52;5.50;;;13.10;99.90;;;;;;5048833;28;20171;-43
2022/08/07 01:31:08;;;;;;;9.43;5.68;;;13.10;99.90;;;;;;5048262;28;20025;-44
2022/08/07 01:33:34;;;;;;;8.70;6.03;;;13.10;99.90;;;;;;5048792;28;20017;-43
2022/08/07 01:36:01;;;;;;;6.70;5.53;;;13.10;99.90;;;;;;5048703;28;20025;-47
2022/08/07 01:38:27;;;;;;;11.48;5.75;;;13.10;99.90;;;;;;5048696;28;20479;-43
2022/08/07 01:41:00;;;;;;;7.55;5.28;;;13.00;99.90;;;;;;5047898;28;20560;-47
2022/08/07 01:43:27;;;;;;;10.25;5.80;;;13.00;99.90;;;;;;5048637;28;20555;-46
2022/08/07 01:45:54;;;;;;;9.80;6.70;;;12.90;99.90;;;;;;5048399;28;20020;-45
2022/08/07 01:48:20;;;;;;;8.13;5.75;;;12.90;99.90;;;;;;5048580;28;20563;-44
2022/08/07 01:50:51;;;;;;;8.68;5.80;;;12.80;99.90;;;;;;5048058;28;20017;-44
2022/08/07 01:53:18;;;;;;;;;;;12.80;99.90;;;;;;5049311;28;20043;-44
2022/08/07 01:55:49;;;;;;;9.30;6.30;;;12.80;99.90;;;;;;5048540;28;19904;-44
2022/08/07 01:58:20;;;;;;;8.48;5.95;;;12.80;99.90;;;;;;5048684;28;20051;-47
2022/08/07 02:00:54;;;;;;;9.98;6.22;;;12.80;99.90;;;;;;5047839;28;20021;-44
2022/08/07 02:03:21;;;;;;;11.45;6.35;;;12.80;99.90;;;;;;5048527;28;20222;-44
2022/08/07 02:05:53;;;;;;;8.82;5.88;;;12.80;99.90;;;;;;5048965;28;20417;-44
2022/08/07 02:08:22;;;;;;;9.82;6.50;;;12.80;99.90;;;;;;5048622;28;20108;-43
2022/08/07 02:10:55;;;;;;;11.27;5.95;;;12.70;99.90;;;;;;5047680;28;20053;-45
2022/08/07 02:13:23;;;;;;;7.20;5.50;;;12.70;99.90;;;;;;5048479;28;20021;-47
2022/08/07 02:15:50;;;;;;;11.05;6.90;;;12.70;99.90;;;;;;5047455;28;20024;-45
2022/08/07 02:18:17;;;;;;;8.02;6.35;;;12.60;99.90;;;;;;5048240;28;20444;-43
2022/08/07 02:20:46;;;;;;;12.02;6.55;;;12.60;99.90;;;;;;5046317;28;20017;-43
2022/08/07 02:23:13;;;;;;;8.32;5.63;;;12.60;99.90;;;;;;5048401;28;20017;-46
2022/08/07 02:25:40;;;;;;;10.52;6.60;;;12.50;99.90;;;;;;5048237;28;20484;-44
2022/08/07 02:28:07;;;;;;;8.43;6.18;;;12.50;99.90;;;;;;5049273;28;20020;-45
2022/08/07 02:30:35;;;;;;;9.48;7.03;;;12.50;99.90;;;;;;5052010;28;20029;-45
2022/08/07 02:33:02;;;;;;;9.90;6.57;;;12.60;99.90;;;;;;5051974;28;20100;-47
2022/08/07 02:35:29;;;;;;;8.88;6.63;;;12.50;99.90;;;;;;5051997;28;20025;-43
2022/08/07 02:37:57;;;;;;;13.27;6.85;;;12.50;99.90;;;;;;5052028;28;20282;-45
2022/08/07 02:40:23;;;;;;;9.57;6.90;;;12.50;99.90;;;;;;5052317;28;20072;-43
2022/08/07 02:42:50;;;;;;;10.02;7.47;;;12.40;99.90;;;;;;5051829;28;20128;-47
2022/08/07 02:45:18;;;;;;;9.57;7.43;;;12.40;99.90;;;;;;5052235;28;20025;-46
2022/08/07 02:47:44;;;;;;;9.70;7.68;;;12.30;99.90;;;;;;5051867;28;20021;-44
2022/08/07 02:50:10;;;;;;;10.30;7.97;;;12.30;99.90;;;;;;5050490;28;20553;-46
2022/08/07 02:52:43;;;;;;;11.82;7.60;;;12.30;99.90;;;;;;5051080;28;20017;-46
2022/08/07 02:55:17;;;;;;;13.90;7.68;;;12.30;99.90;;;;;;5050580;28;20390;-45
2022/08/07 02:57:45;;;;;;;10.85;7.25;;;12.20;99.90;;;;;;5051822;28;20029;-45
2022/08/07 03:00:11;;;;;;;8.85;6.93;;;12.20;99.90;;;;;;5050386;28;20116;-44
2022/08/07 03:02:40;;;;;;;8.93;7.00;;;12.20;99.90;;;;;;5051076;28;20037;-44
2022/08/07 03:05:07;;;;;;;10.80;7.30;;;12.20;99.90;;;;;;5052007;28;20477;-44
2022/08/07 03:07:33;;;;;;;10.48;7.30;;;12.10;99.90;;;;;;5051898;28;20403;-46
2022/08/07 03:10:00;;;;;;;10.23;7.57;;;12.20;99.90;;;;;;5051951;28;20029;-44
2022/08/07 03:12:27;;;;;;;9.52;6.65;;;12.20;99.90;;;;;;5051241;28;20021;-47
2022/08/07 03:14:55;;;;;;;11.32;7.22;;;12.10;99.90;;;;;;5051232;28;20021;-44
2022/08/07 03:17:20;;;;;;;12.98;7.30;;;12.10;99.90;;;;;;5049942;28;20471;-46
2022/08/07 03:19:46;;;;;;;11.27;6.72;;;12.10;99.90;;;;;;5051570;28;20120;-47
2022/08/07 03:22:12;;;;;;;12.07;7.45;;;12.10;99.90;;;;;;5051079;28;20083;-44
2022/08/07 03:24:38;;;;;;;13.57;8.15;;;12.10;99.90;;;;;;5051469;28;20423;-47
2022/08/07 03:27:06;;;;;;;10.80;7.70;;;12.00;99.90;;;;;;5051309;28;20029;-43
2022/08/07 03:29:48;;;;;;;13.35;8.02;;;11.90;99.90;;;;;;5051239;28;20299;-45
2022/08/07 03:32:16;;;;;;;12.00;7.63;;;11.90;99.90;;;;;;5050867;28;20492;-43
2022/08/07 03:34:47;;;;;;;12.02;8.38;;;11.90;99.90;;;;;;5051233;28;20017;-44
2022/08/07 03:37:14;;;;;;;11.73;7.78;;;11.80;99.90;;;;;;5050983;28;20045;-44
2022/08/07 03:39:41;;;;;;;13.80;8.02;;;11.80;99.90;;;;;;5050608;28;20091;-42
2022/08/07 03:42:07;;;;;;;10.95;8.00;;;11.80;99.90;;;;;;5050476;28;20033;-45
2022/08/07 03:44:35;;;;;;;11.48;7.97;;;11.70;99.90;;;;;;5051266;28;20021;-46
2022/08/07 03:47:01;;;;;;;9.75;7.43;;;11.60;99.90;;;;;;5051092;28;20203;-44
2022/08/07 03:49:28;;;;;;;10.73;7.82;;;11.50;99.90;;;;;;5051028;28;20013;-45
2022/08/07 03:51:56;;;;;;;12.10;8.13;;;11.50;99.90;;;;;;5048965;28;20021;-45
2022/08/07 03:54:21;;;;;;;13.45;8.10;;;11.40;99.90;;;;;;5050589;28;20021;-44
2022/08/07 03:56:48;;;;;;;11.93;7.93;;;11.40;99.90;;;;;;5050667;28;20035;-44
2022/08/07 03:59:14;;;;;;;14.02;8.15;;;11.40;99.90;;;;;;5050568;28;20043;-47
2022/08/07 04:01:42;;;;;;;11.02;8.00;;;11.40;99.90;;;;;;5048510;28;20024;-44
2022/08/07 04:04:07;;;;;;;12.60;8.52;;;11.40;99.90;;;;;;5050508;28;20376;-43
2022/08/07 04:06:35;;;;;;;11.07;8.05;;;11.40;99.90;;;;;;5050330;28;20025;-45
2022/08/07 04:09:02;;;;;;;14.40;9.15;;;11.50;99.90;;;;;;5050282;28;20028;-44
2022/08/07 04:11:28;;;;;;;10.65;8.70;;;11.50;99.90;;;;;;5049844;28;20023;-44
2022/08/07 04:13:55;;;;;;;14.40;9.68;;;11.50;99.90;;;;;;5049983;28;20120;-44
2022/08/07 04:16:21;;;;;;;14.93;10.25;;;11.60;99.90;;;;;;5050207;28;20520;-44
2022/08/07 04:18:47;;;;;;;12.00;9.20;;;11.60;99.90;;;;;;5050321;28;20472;-44
2022/08/07 04:21:13;;;;;;;14.32;9.10;;;11.70;99.90;;;;;;5049844;28;20029;-44
2022/08/07 04:23:39;;;;;;;14.65;8.40;;;11.70;99.90;;;;;;5050038;28;20583;-44
2022/08/07 04:26:06;;;;;;;11.45;8.00;;;11.70;99.90;;;;;;5050085;28;20590;-44
2022/08/07 04:28:32;;;;;;;11.15;8.35;;;11.70;99.90;;;;;;5068366;28;20052;-44
2022/08/07 04:30:58;;;;;;;11.18;8.30;;;11.70;99.90;;;;;;5069327;28;20063;-43
2022/08/07 04:33:25;;;;;;;10.60;8.57;;;11.80;99.90;;;;;;5069902;28;20046;-44
2022/08/07 04:35:52;;;;;;;12.25;8.63;;;11.80;99.90;;;;;;5069549;28;20017;-44
2022/08/07 04:38:18;;;;;;;10.35;7.72;;;11.80;99.90;;;;;;5069706;28;20025;-45
2022/08/07 04:40:44;;;;;;;15.05;8.48;;;11.90;99.90;;;;;;5068051;28;20078;-44
2022/08/07 04:43:11;;;;;;;10.52;7.82;;;11.90;99.90;;;;;;5069759;28;20042;-44
2022/08/07 04:46:00;;;;;;;11.32;8.35;;;11.90;99.90;;;;;;5069207;28;20074;-43
2022/08/07 04:48:52;;;;;;;13.95;8.25;;;11.90;99.90;;;;;;5074111;28;20692;-45
2022/08/07 04:51:33;;;;;;;11.93;7.95;;;12.00;99.90;;;;;;5066038;28;20104;-44
2022/08/07 04:54:19;;;;;;;9.60;7.75;;;12.00;99.90;;;;;;5067480;28;20103;-45
2022/08/07 04:57:20;;;;;;;10.48;7.90;;;12.10;99.90;;;;;;5079136;28;20162;-44
2022/08/07 05:00:04;;;;;;;10.25;7.70;;;12.20;99.90;;;;;;5084267;28;20028;-44
2022/08/07 05:02:38;;;;;;;11.82;7.80;;;12.20;99.90;;;;;;5088684;28;20035;-44
2022/08/07 05:05:17;;;;;;;10.27;8.18;;;12.20;99.90;;;;;;5089489;28;20383;-47
2022/08/07 05:07:57;;;;;;;9.87;7.43;;;12.20;99.90;;;;;;5089387;28;20024;-45
2022/08/07 05:10:34;;;;;;;11.23;7.75;;;12.30;99.90;;;;;;5089603;28;20452;-46
2022/08/07 05:13:08;;;;;;;9.85;7.38;;;12.30;99.90;;;;;;5087780;28;20105;-45
2022/08/07 05:15:42;;;;;;;9.45;7.60;;;12.30;99.90;;;;;;5089192;28;20020;-44
2022/08/07 05:18:18;;;;;;;9.80;7.25;;;12.40;99.90;;;;;;5089137;28;20514;-44
2022/08/07 05:20:48;;;;;;;11.40;7.70;;;12.50;99.90;;;;;;5088599;28;20032;-44
2022/08/07 05:23:19;;;;;;;9.95;7.50;;;12.50;99.90;;;;;;5089315;28;20024;-46
2022/08/07 05:25:45;;;;;;;10.18;7.80;;;12.60;99.90;;;;;;5089149;28;20107;-46
2022/08/07 05:28:13;;;;;;;13.27;8.00;;;12.70;99.90;;;;;;5088954;28;20028;-45
2022/08/07 05:30:40;;;;;;;11.75;7.72;;;12.70;99.90;;;;;;5088515;28;20467;-44
2022/08/07 05:33:07;;;;;;;12.05;8.68;;;12.80;99.90;;;;;;5089079;28;20048;-44
2022/08/07 05:35:34;;;;;;;9.63;7.43;;;12.80;99.90;;;;;;5089279;28;20526;-45
2022/08/07 05:38:02;;;;;;;12.10;8.23;;;12.90;99.90;;;;;;5088931;28;20490;-44
2022/08/07 05:40:28;;;;;;;12.63;9.38;;;13.00;99.90;;;;;;5063647;28;20029;-44
2022/08/07 05:42:54;;;;;;;11.00;8.43;;;13.00;99.90;;;;;;5067843;28;20034;-45
2022/08/07 05:45:21;;;;;;;12.88;7.88;;;13.10;99.90;;;;;;5068329;28;20028;-44
2022/08/07 05:47:46;;;;;;;10.70;7.50;;;13.10;99.90;;;;;;5068213;28;20027;-44
2022/08/07 05:50:13;;;;;;;16.67;8.25;;;13.20;99.90;;;;;;5066506;28;20028;-44
2022/08/07 05:52:39;;;;;;;10.57;8.10;;;13.20;99.90;;;;;;5072022;28;20029;-45
2022/08/07 05:55:05;;;;;;;10.52;7.65;;;13.30;99.90;;;;;;5068409;28;20376;-44
2022/08/07 05:57:31;;;;;;;10.35;7.88;;;13.40;99.90;;;;;;5066817;28;20105;-45
2022/08/07 05:59:58;;;;;;;11.50;7.78;;;13.50;99.90;;;;;;5068311;28;20040;-44
2022/08/07 06:02:27;;;;;;;10.60;7.35;;;13.50;99.90;;;;;;5067621;28;20024;-44
2022/08/07 06:04:56;;;;;;;12.02;8.07;;;13.60;99.90;;;;;;5068338;28;20433;-44
2022/08/07 06:07:22;;;;;;;10.07;7.50;;;13.60;99.90;;;;;;5068127;28;20035;-46
2022/08/07 06:09:48;;;;;;;15.15;8.25;;;13.70;99.90;;;;;;5062114;28;20520;-44
2022/08/07 06:12:14;;;;;;;12.68;8.40;;;13.80;99.90;;;;;;5064041;28;20116;-43
2022/08/07 06:14:41;;;;;;;13.10;7.63;;;13.90;99.90;;;;;;5068054;28;20021;-43
2022/08/07 06:17:08;;;;;;;11.10;8.38;;;13.90;99.90;;;;;;5067976;28;20044;-45
2022/08/07 06:19:34;;;;;;;10.05;7.15;;;13.90;99.90;;;;;;5068064;28;20502;-44
2022/08/07 06:22:01;;;;;;;12.05;7.75;;;14.00;99.90;;;;;;5067505;28;20093;-44
2022/08/07 06:24:26;;;;;;;11.50;7.47;;;14.10;99.90;;;;;;5067596;28;20609;-47
2022/08/07 06:26:52;;;;;;;9.57;6.97;;;14.20;99.90;;;;;;5067989;28;20068;-43
2022/08/07 06:29:17;;;;;;;7.78;6.70;;;14.20;99.90;;;;;;5068091;28;20060;-46
2022/08/07 06:31:43;;;;;;;11.57;7.10;;;14.30;99.90;;;;;;5067568;28;20025;-46
2022/08/07 06:34:08;;;;;;;9.77;7.05;;;14.40;99.90;;;;;;5068287;28;20036;-43
2022/08/07 06:36:34;;;;;;;11.25;7.00;;;14.50;99.90;;;;;;5068854;28;20463;-44
2022/08/07 06:38:59;;;;;;;10.32;6.97;;;14.50;99.90;;;;;;5068071;28;20495;-44
2022/08/07 06:42:06;;;;;;;13.40;7.82;;;14.60;99.90;;;;;;5067263;28;20152;-45
2022/08/07 06:44:33;;;;;;;12.07;7.00;;;14.70;99.90;;;;;;5066513;28;20059;-43
2022/08/07 06:46:59;;;;;;;7.03;6.32;;;14.80;99.90;;;;;;5068082;28;20131;-44
2022/08/07 06:49:25;;;;;;;9.13;6.85;;;14.90;99.90;;;;;;5067683;28;20128;-45
2022/08/07 06:51:53;;;;;;;8.88;6.55;;;15.00;99.90;;;;;;5067228;28;20103;-46
2022/08/07 06:54:19;;;;;;;11.40;6.65;;;15.10;99.90;;;;;;5067719;28;20480;-44
2022/08/07 06:56:46;;;;;;;9.20;6.80;;;15.20;99.90;;;;;;5067880;28;20123;-44
2022/08/07 06:59:21;;;;;;;8.93;6.28;;;15.20;99.90;;;;;;5067832;28;20523;-45
2022/08/07 07:01:48;;;;;;;8.10;5.97;;;15.30;99.90;;;;;;5066540;28;20037;-43
2022/08/07 07:04:14;;;;;;;8.68;6.38;;;15.50;99.90;;;;;;5067180;28;20024;-43
2022/08/07 07:06:40;;;;;;;9.23;6.38;;;15.60;99.90;;;;;;5068018;28;20093;-43
2022/08/07 07:09:26;;;;;;;10.48;6.63;;;15.70;99.90;;;;;;5067904;28;20064;-44
2022/08/07 07:12:07;;;;;;;10.55;6.03;;;15.80;99.90;;;;;;5067341;28;20379;-43
2022/08/07 07:14:49;;;;;;;7.68;5.93;;;15.90;99.90;;;;;;5069438;28;20048;-43
2022/08/07 07:17:24;;;;;;;8.63;6.53;;;16.00;99.90;;;;;;5071153;28;20028;-44
2022/08/07 07:19:55;;;;;;;7.88;5.72;;;16.10;99.90;;;;;;5071003;28;20036;-45
2022/08/07 07:22:21;;;;;;;;;;;16.20;99.90;;;;;;5071064;28;20029;-43
2022/08/07 07:24:48;;;;;;;8.15;5.82;;;16.40;99.90;;;;;;5071491;28;19911;-44
2022/08/07 07:27:16;;;;;;;11.98;6.68;;;16.50;99.90;;;;;;5070933;28;20025;-44
2022/08/07 07:29:46;;;;;;;8.23;5.80;;;16.50;99.90;;;;;;5064644;28;20044;-45
2022/08/07 07:32:14;;;;;;;7.18;5.82;;;16.60;99.90;;;;;;5066708;28;20036;-44
2022/08/07 07:34:45;;;;;;;7.13;6.07;;;16.70;99.90;;;;;;5067505;28;20055;-44
2022/08/07 07:37:12;;;;;;;9.75;6.18;;;16.90;99.90;;;;;;5070645;28;20047;-45
2022/08/07 07:39:39;;;;;;;9.65;6.05;;;17.00;99.90;;;;;;5069173;28;20039;-43
2022/08/07 07:42:08;;;;;;;9.20;6.15;;;17.20;99.90;;;;;;5067361;28;20021;-44
2022/08/07 07:44:37;;;;;;;9.10;5.70;;;17.30;99.90;;;;;;5070518;28;20032;-44
2022/08/07 07:47:04;;;;;;;6.78;5.28;;;17.40;99.90;;;;;;5069382;28;20044;-44
2022/08/07 07:49:32;;;;;;;6.30;5.20;;;17.50;99.90;;;;;;5070789;28;20400;-44
2022/08/07 07:51:59;;;;;;;10.27;5.63;;;17.60;99.90;;;;;;5069994;28;20096;-45
2022/08/07 07:54:26;;;;;;;7.68;5.40;;;17.80;99.90;;;;;;5069294;28;20495;-44
2022/08/07 07:56:54;;;;;;;7.13;5.13;;;18.00;99.90;;;;;;5070581;28;20513;-43
2022/08/07 07:59:20;;;;;;;13.35;6.13;;;18.10;99.90;;;;;;5066462;28;20086;-43
2022/08/07 08:01:48;;;;;;;7.22;5.15;;;18.40;99.80;;;;;;5069722;28;20024;-44
2022/08/07 08:04:15;;;;;;;8.13;5.72;;;18.60;99.30;;;;;;5070204;28;20089;-44
2022/08/07 08:06:43;;;;;;;6.38;5.47;;;18.80;99.20;;;;;;5070162;28;20575;-44
2022/08/07 08:09:10;;;;;;;8.32;5.22;;;19.00;99.30;;;;;;5070314;28;20115;-45
2022/08/07 08:11:36;;;;;;;7.43;4.63;;;19.20;98.90;;;;;;5069587;28;20021;-44
2022/08/07 08:14:02;;;;;;;11.23;4.82;;;19.30;97.10;;;;;;5070134;28;20020;-44
2022/08/07 08:16:40;;;;;;;7.25;5.15;;;19.70;97.30;;;;;;5069969;28;20182;-44
2022/08/07 08:19:11;;;;;;;6.90;4.82;;;19.90;97.10;;;;;;5070150;28;20774;-44
2022/08/07 08:27:17;;;;;;;6.65;4.25;;;20.60;96.00;;;;;;5069807;28;20031;-44
2022/08/07 08:29:49;;;;;;;6.15;3.53;;;21.00;94.20;;;;;;5063619;28;20111;-44
2022/08/07 08:32:17;;;;;;;2.97;2.33;;;21.60;93.40;;;;;;5068456;28;20027;-44
2022/08/07 08:34:45;;;;;;;3.45;3.00;;;22.00;90.40;;;;;;5069676;28;20027;-43
2022/08/07 08:37:12;;;;;;;4.60;3.20;;;23.20;89.10;;;;;;5067641;28;20113;-44
2022/08/07 08:39:41;;;;;;;3.75;2.70;;;24.70;83.10;;;;;;5068559;28;20031;-45
2022/08/07 08:42:23;;;;;;;3.33;2.50;;;26.20;77.10;;;;;;5068867;28;20035;-45
2022/08/07 08:45:01;;;;;;;3.13;2.38;;;27.80;69.10;;;;;;5063936;28;20515;-45
2022/08/07 08:47:39;;;;;;;3.72;2.70;;;29.20;64.20;;;;;;5069406;28;20032;-45
2022/08/07 08:50:12;;;;;;;5.22;2.42;;;30.00;59.20;;;;;;5069122;28;20029;-45
2022/08/07 08:53:02;;;;;;;2.92;2.70;;;30.80;56.10;;;;;;5068796;28;20184;-45
2022/08/07 08:55:49;;;;;;;4.45;2.25;;;32.20;53.50;;;;;;5057546;28;20506;-45
2022/08/07 08:58:28;;;;;;;2.17;1.65;;;33.10;48.20;;;;;;5069179;28;20099;-45
2022/08/07 09:01:00;;;;;;;2.83;2.00;;;33.40;47.30;;;;;;5067440;28;20033;-45
2022/08/07 09:03:36;;;;;;;4.75;1.90;;;32.30;46.80;;;;;;5069290;28;20403;-46
2022/08/07 09:06:16;;;;;;;4.20;2.15;;;31.00;48.30;;;;;;5069457;28;20390;-45
2022/08/07 09:09:01;;;;;;;3.40;2.03;;;30.40;51.50;;;;;;5069437;28;20391;-46
2022/08/07 09:11:39;;;;;;;3.50;1.98;;;31.00;51.30;;;;;;5068501;28;20511;-46
2022/08/07 09:14:13;;;;;;;2.65;2.22;;;31.90;50.00;;;;;;5069180;28;20044;-45
2022/08/07 09:16:53;;;;;;;3.95;2.33;;;32.70;47.20;;;;;;5068140;28;20043;-45
2022/08/07 09:19:41;;;;;;;3.47;1.65;;;32.60;46.30;;;;;;5069083;28;20020;-45
2022/08/07 09:22:17;;;;;;;2.67;2.00;;;31.20;47.10;;;;;;5068368;28;20020;-44
2022/08/07 09:25:06;;;;;;;2.92;2.05;;;29.80;50.80;;;;;;5069235;28;20024;-44
2022/08/07 09:27:54;;;;;;;3.33;2.00;;;28.50;52.60;;;;;;5067464;28;20391;-44
2022/08/07 09:30:22;;;;;;;2.60;2.22;;;27.20;53.90;;;;;;5068898;28;20032;-45
2022/08/07 09:33:08;;;;;;;5.30;3.03;;;26.20;56.10;;;;;;5068250;28;20429;-46
2022/08/07 09:36:03;;;;;;;3.58;2.08;;;24.80;56.80;;;;;;5068757;28;20102;-43
2022/08/07 09:38:28;;;;;;;3.92;2.38;;;24.30;58.10;;;;;;5049543;28;20039;-45
2022/08/07 09:41:18;;;;;;;5.57;2.35;;;23.80;60.80;;;;;;5061173;28;20434;-44
2022/08/07 09:44:06;;;;;;;3.33;2.50;;;23.20;61.90;;;;;;5067514;28;20113;-44
2022/08/07 09:46:46;;;;;;;4.13;2.33;;;23.10;63.20;;;;;;5068362;28;20086;-47
2022/08/07 09:49:47;;;;;;;9.23;6.07;;;23.00;64.10;;;;;;5068462;28;20021;-45
2022/08/07 09:52:26;;;;;;;7.38;6.00;;;22.80;64.40;;;;;;5067806;28;20035;-44
2022/08/07 09:55:03;;;;;;;5.68;4.95;;;22.60;64.30;;;;;;5068416;28;20021;-45
2022/08/07 09:58:02;;;;;;;4.57;2.60;;;22.50;65.60;;;;;;5068657;28;20162;-44
2022/08/07 10:00:58;;;;;;;5.27;3.83;;;22.40;64.10;;;;;;5068238;28;20024;-45
2022/08/07 10:03:35;;;;;;;8.25;4.85;;;22.40;64.60;;;;;;5068450;28;20233;-44
2022/08/07 10:06:34;;;;;;;15.85;8.98;;;22.40;64.90;;;;;;5050411;28;20497;-45
2022/08/07 10:09:23;;;;;;;11.50;6.05;;;22.40;66.30;;;;;;5068401;28;20115;-47
2022/08/07 10:11:54;;;;;;;35.95;21.77;;;22.60;64.70;;;;;;5067803;28;20032;-48
2022/08/07 10:14:45;;;;;;;6.13;4.15;;;22.80;65.10;;;;;;5068326;28;20012;-44
2022/08/07 10:17:42;;;;;;;5.53;2.67;;;24.00;62.00;;;;;;5068323;28;20040;-46
2022/08/07 10:20:33;;;;;;;20.98;13.73;;;25.10;58.50;;;;;;5066896;28;20501;-45
2022/08/07 10:23:31;;;;;;;4.45;3.03;;;26.80;57.30;;;;;;5068272;28;20029;-44
2022/08/07 10:26:05;;;;;;;3.72;2.00;;;27.50;54.90;;;;;;5064450;28;20400;-43
2022/08/07 10:28:49;;;;;;;2.67;1.75;;;27.30;54.50;;;;;;5066324;28;20372;-44
2022/08/07 10:31:27;;;;;;;1.90;1.60;;;26.80;54.70;;;;;;5065255;28;20385;-46
2022/08/07 10:33:56;;;;;;;2.88;1.60;;;26.40;54.60;;;;;;5066923;28;20021;-48
2022/08/07 10:36:42;;;;;;;1.92;1.52;;;25.80;56.20;;;;;;5066774;28;20190;-45
2022/08/07 10:39:32;;;;;;;3.47;1.30;;;25.50;56.60;;;;;;5066207;28;20084;-47
2022/08/07 10:42:11;;;;;;;5.13;1.70;;;25.20;57.70;;;;;;5066265;28;20052;-45
2022/08/07 10:44:53;;;;;;;1.97;1.30;;;24.80;56.90;;;;;;5066497;28;20511;-46
2022/08/07 10:47:33;;;;;;;1.45;1.30;;;24.50;58.00;;;;;;5066172;28;20239;-43
2022/08/07 10:50:18;;;;;;;4.95;1.63;;;24.40;59.10;;;;;;5068176;28;20032;-46
2022/08/07 10:53:10;;;;;;;3.10;1.20;;;24.20;57.70;;;;;;5065590;28;20411;-45
2022/08/07 10:55:56;;;;;;;1.83;1.10;;;24.10;59.10;;;;;;5070403;28;20024;-45
2022/08/07 10:58:58;;;;;;;1.52;1.30;;;24.00;59.40;;;;;;5070415;28;20048;-47
2022/08/07 11:01:26;;;;;;;3.17;1.35;;;24.40;61.20;;;;;;5069483;28;20013;-46
2022/08/07 11:04:40;;;;;;;2.75;1.50;;;25.40;59.10;;;;;;5070510;28;20391;-43
2022/08/07 11:07:08;;;;;;;2.03;1.40;;;27.50;56.50;;;;;;5047371;28;20498;-44
2022/08/07 11:09:44;;;;;;;2.75;1.40;;;30.20;52.40;;;;;;5046916;28;20575;-43
2022/08/07 11:12:16;;;;;;;1.90;1.30;;;31.40;48.10;;;;;;5059170;28;20037;-43
2022/08/07 11:14:57;;;;;;;2.05;1.40;;;33.10;46.90;;;;;;5070298;28;20236;-43
2022/08/07 11:17:47;;;;;;;2.13;1.42;;;32.30;44.20;;;;;;5069745;28;20492;-43
2022/08/07 11:20:30;;;;;;;2.53;1.38;;;31.10;45.60;;;;;;5068573;28;20103;-47
2022/08/07 11:23:04;;;;;;;2.10;1.42;;;29.70;47.80;;;;;;5069496;28;20067;-45
2022/08/07 11:25:40;;;;;;;2.75;1.45;;;29.10;49.10;;;;;;5068581;28;20042;-49
2022/08/07 11:28:24;;;;;;;1.92;1.38;;;28.50;49.80;;;;;;5069939;28;20502;-45
2022/08/07 11:31:06;;;;;;;1.50;1.10;;;28.10;49.10;;;;;;5067577;28;20217;-45
2022/08/07 11:33:43;;;;;;;4.18;1.48;;;27.70;50.00;;;;;;5069786;28;20044;-44
2022/08/07 11:36:39;;;;;;;2.63;1.50;;;27.40;51.30;;;;;;5069980;28;20127;-45
2022/08/07 11:39:31;;;;;;;3.22;1.40;;;28.90;49.80;;;;;;5066158;28;20090;-45
2022/08/07 11:42:11;;;;;;;1.33;1.10;;;29.90;49.50;;;;;;5048305;28;20029;-47
2022/08/07 11:45:11;;;;;;;2.40;1.70;;;31.10;47.70;;;;;;5049145;28;20060;-43
2022/08/07 11:47:55;;;;;;;2.40;1.20;;;30.50;47.10;;;;;;5066847;28;20029;-42
2022/08/07 11:50:49;;;;;;;3.08;1.10;;;30.00;47.50;;;;;;5069139;28;20032;-44
2022/08/07 11:53:40;;;;;;;3.60;1.33;;;28.70;48.90;;;;;;5068175;28;20575;-44
2022/08/07 11:56:32;;;;;;;1.92;1.13;;;28.50;49.80;;;;;;5063985;28;20040;-44
2022/08/07 11:59:33;;;;;;;2.78;1.40;;;30.00;49.30;;;;;;5069190;28;20251;-44
2022/08/07 12:02:33;;;;;;;2.97;1.70;;;30.30;47.00;;;;;;5025135;28;20030;-43
2022/08/07 12:05:17;;;;;;;2.30;1.13;;;29.10;46.00;;;;;;5069189;28;20024;-43
2022/08/07 12:07:55;;;;;;;1.20;0.90;;;29.20;45.80;;;;;;5068528;28;20496;-43
2022/08/07 12:10:33;;;;;;;2.17;0.90;;;29.30;44.90;;;;;;5068644;28;20028;-44
2022/08/07 12:13:04;;;;;;;3.78;1.70;;;28.70;46.20;;;;;;5068682;28;20043;-43
2022/08/07 12:15:36;;;;;;;1.60;1.35;;;28.00;48.60;;;;;;5068191;28;20035;-50
2022/08/07 12:18:31;;;;;;;1.98;1.15;;;27.50;48.80;;;;;;5068788;28;20036;-43
2022/08/07 12:21:13;;;;;;;2.47;1.20;;;27.30;48.40;;;;;;5063227;28;20040;-43
2022/08/07 12:24:02;;;;;;;2.88;1.13;;;27.70;49.30;;;;;;5068171;28;20037;-44
2022/08/07 12:26:41;;;;;;;2.88;1.13;;;28.10;47.10;;;;;;5068115;28;20454;-44
2022/08/07 12:29:29;;;;;;;2.00;1.35;;;28.40;46.50;;;;;;5065762;28;20064;-45
2022/08/07 12:32:08;;;;;;;4.28;1.30;;;29.00;47.60;;;;;;5067751;28;20048;-45
2022/08/07 12:34:37;;;;;;;1.95;1.30;;;29.30;46.30;;;;;;5067451;28;20078;-44
2022/08/07 12:37:04;;;;;;;3.93;0.90;;;29.40;46.20;;;;;;5067713;28;20132;-44
2022/08/07 12:39:32;;;;;;;1.67;1.30;;;29.10;45.40;;;;;;5079951;28;20068;-46
2022/08/07 12:41:59;;;;;;;3.35;1.30;;;28.40;46.10;;;;;;5048689;28;20430;-44
2022/08/07 12:44:27;;;;;;;3.83;1.58;;;28.20;48.40;;;;;;5047375;28;20438;-45
2022/08/07 12:47:25;;;;;;;3.22;1.40;;;28.30;46.80;;;;;;5048104;28;20033;-44
2022/08/07 12:50:21;;;;;;;2.75;1.42;;;27.80;48.10;;;;;;5047625;28;20037;-47
2022/08/07 12:52:54;;;;;;;1.92;1.10;;;28.30;47.00;;;;;;5047276;28;20025;-45
2022/08/07 12:55:34;;;;;;;2.22;1.20;;;28.40;46.50;;;;;;5047790;28;20028;-47
2022/08/07 12:58:01;;;;;;;3.40;1.60;;;28.60;46.10;;;;;;5049107;28;20017;-46
2022/08/07 13:00:53;;;;;;;2.22;1.70;;;28.50;47.20;;;;;;5067165;28;20274;-47
2022/08/07 13:03:58;;;;;;;1.67;1.30;;;28.10;47.20;;;;;;5062402;28;20434;-44
2022/08/07 13:06:40;;;;;;;2.70;1.42;;;27.70;47.90;;;;;;5044094;28;20599;-45
2022/08/07 13:09:23;;;;;;;2.17;1.20;;;27.80;47.90;;;;;;5061285;28;20107;-44
2022/08/07 13:12:03;;;;;;;3.00;1.20;;;27.60;47.90;;;;;;5059854;28;20025;-44
2022/08/07 13:14:41;;;;;;;;;;;28.10;48.90;;;;;;5067210;28;20086;-44
2022/08/07 13:17:25;;;;;;;3.35;1.42;;;28.10;48.90;;;;;;5066306;28;19916;-44
2022/08/07 13:20:01;;;;;;;3.88;1.35;;;28.30;46.60;;;;;;5059631;28;20040;-44